Time;durP1;ratioP1;P1;durP2;ratioP2;P2;SDS_P1;SDS_P2;PMS_P1;PMS_P2;Temp;Humidity;BMP_temperature;BMP_pressure;BME280_temperature;BME280_humidity;BME280_pressure;Samples;Min_cycle;Max_cycle;Signal;HPM_P1;HPM_P2
2021/07/23 05:54:12;;;;;;;9.27;5.47;;;;;;;;;;10546480;27;20380;-84
2021/07/23 05:59:23;;;;;;;7.15;5.40;;;;;;;;;;10526940;28;20032;-84
2021/07/23 06:04:28;;;;;;;6.30;4.38;;;;;;;;;;10540062;28;20044;-84
2021/07/23 06:09:30;;;;;;;5.32;4.60;;;;;;;;;;10526280;28;20028;-83
2021/07/23 06:14:37;;;;;;;3.92;3.50;;;;;;;;;;10528024;28;20029;-84
2021/07/23 06:19:41;;;;;;;8.63;5.32;;;;;;;;;;10528909;28;20036;-84
2021/07/23 06:24:49;;;;;;;7.95;4.43;;;;;;;;;;10545626;28;20032;-84
2021/07/23 06:29:53;;;;;;;4.38;3.55;;;;;;;;;;10531242;28;20040;-81
2021/07/23 06:35:01;;;;;;;6.35;4.03;;;;;;;;;;10571376;28;20080;-83
2021/07/23 06:40:17;;;;;;;8.40;5.38;;;;;;;;;;10574297;28;20020;-85
2021/07/23 06:45:33;;;;;;;6.80;4.97;;;;;;;;;;10548771;28;20093;-85
2021/07/23 06:50:57;;;;;;;5.03;3.40;;;;;;;;;;10523369;28;20050;-83
2021/07/23 06:56:19;;;;;;;4.23;3.17;;;;;;;;;;10532305;28;20063;-85
2021/07/23 07:01:41;;;;;;;3.13;2.70;;;;;;;;;;10518129;28;20048;-85
2021/07/23 07:06:43;;;;;;;4.72;3.10;;;;;;;;;;10516510;28;20067;-85
2021/07/23 07:12:06;;;;;;;3.83;3.00;;;;;;;;;;10498424;28;20032;-84
2021/07/23 07:17:08;;;;;;;5.22;3.78;;;;;;;;;;10505636;28;20557;-87
2021/07/23 07:22:16;;;;;;;5.40;3.72;;;;;;;;;;10483033;28;20032;-86
2021/07/23 07:27:25;;;;;;;5.45;3.70;;;;;;;;;;10497820;28;20035;-87
2021/07/23 07:32:59;;;;;;;4.53;2.97;;;;;;;;;;10500686;28;20051;-86
2021/07/23 07:38:00;;;;;;;3.88;2.75;;;;;;;;;;10495675;28;20045;-85
2021/07/23 07:43:02;;;;;;;4.75;2.70;;;;;;;;;;10498650;28;20066;-87
2021/07/23 07:48:05;;;;;;;5.28;2.80;;;;;;;;;;10500296;28;20070;-86
2021/07/23 07:53:12;;;;;;;3.42;2.70;;;;;;;;;;10485408;28;20032;-85
2021/07/23 07:58:19;;;;;;;6.18;2.90;;;;;;;;;;10520252;28;20021;-83
2021/07/23 08:03:20;;;;;;;5.30;3.67;;;;;;;;;;10521387;28;20076;-85
2021/07/23 08:08:23;;;;;;;4.95;3.13;;;;;;;;;;10501827;28;20482;-83
2021/07/23 08:13:27;;;;;;;4.10;3.65;;;;;;;;;;10499461;28;20028;-86
2021/07/23 08:18:46;;;;;;;6.57;3.10;;;;;;;;;;10510863;28;20386;-81
2021/07/23 08:23:47;;;;;;;4.65;2.80;;;;;;;;;;10510081;28;20020;-85
2021/07/23 08:28:48;;;;;;;4.68;3.22;;;;;;;;;;10492276;28;20024;-82
2021/07/23 08:33:49;;;;;;;7.18;3.55;;;;;;;;;;10492212;28;20021;-83
2021/07/23 08:38:51;;;;;;;2.90;2.50;;;;;;;;;;10491795;28;20123;-83
2021/07/23 08:43:52;;;;;;;3.58;2.90;;;;;;;;;;10498639;28;20029;-83
2021/07/23 08:48:53;;;;;;;6.50;3.75;;;;;;;;;;10493022;28;20052;-84
2021/07/23 08:53:54;;;;;;;6.63;3.33;;;;;;;;;;10492807;28;20482;-83
2021/07/23 08:58:55;;;;;;;4.30;3.15;;;;;;;;;;10492161;28;20119;-82
2021/07/23 09:03:56;;;;;;;4.10;3.00;;;;;;;;;;10487576;28;20044;-81
2021/07/23 09:09:01;;;;;;;4.03;2.85;;;;;;;;;;10488153;28;20024;-82
2021/07/23 09:14:11;;;;;;;6.22;2.83;;;;;;;;;;10489832;28;20017;-82
2021/07/23 09:19:12;;;;;;;5.93;2.88;;;;;;;;;;10487638;28;20024;-82
2021/07/23 09:24:15;;;;;;;5.82;4.15;;;;;;;;;;10489520;28;20023;-85
2021/07/23 09:29:16;;;;;;;5.70;3.60;;;;;;;;;;10501779;28;20024;-85
2021/07/23 09:34:30;;;;;;;4.50;4.05;;;;;;;;;;10516596;28;20023;-83
2021/07/23 09:39:31;;;;;;;4.55;3.40;;;;;;;;;;10497868;28;20021;-85
2021/07/23 09:44:32;;;;;;;4.05;3.45;;;;;;;;;;10494420;28;20024;-83
2021/07/23 09:49:33;;;;;;;4.57;3.42;;;;;;;;;;10502697;28;20036;-85
2021/07/23 09:54:37;;;;;;;4.63;3.13;;;;;;;;;;10491006;28;20425;-82
2021/07/23 09:59:58;;;;;;;4.30;3.42;;;;;;;;;;10489235;28;20029;-81
2021/07/23 10:05:03;;;;;;;3.88;3.25;;;;;;;;;;10487901;28;20036;-83
2021/07/23 10:10:07;;;;;;;5.00;3.20;;;;;;;;;;10486138;28;20033;-83
2021/07/23 10:15:11;;;;;;;4.07;3.30;;;;;;;;;;10493762;28;20029;-82
2021/07/23 10:20:13;;;;;;;3.45;2.95;;;;;;;;;;10506536;28;20089;-83
2021/07/23 10:25:44;;;;;;;4.97;3.47;;;;;;;;;;10489635;28;20042;-84
2021/07/23 10:31:08;;;;;;;4.03;2.90;;;;;;;;;;10491917;28;20360;-83
2021/07/23 10:36:51;;;;;;;22.60;15.90;;;;;;;;;;10509090;28;20021;-84
2021/07/23 10:41:58;;;;;;;3.67;3.08;;;;;;;;;;10290529;28;20018;-84
2021/07/23 10:47:02;;;;;;;4.35;3.40;;;;;;;;;;10457324;28;20040;-84
2021/07/23 10:52:17;;;;;;;3.72;3.08;;;;;;;;;;10498369;28;20047;-84
2021/07/23 10:57:21;;;;;;;4.82;3.65;;;;;;;;;;10502018;28;20120;-83
2021/07/23 11:02:25;;;;;;;4.75;3.70;;;;;;;;;;10492825;28;20059;-82
2021/07/23 11:07:32;;;;;;;7.90;7.10;;;;;;;;;;10496905;28;20025;-83
2021/07/23 11:12:42;;;;;;;6.72;4.00;;;;;;;;;;10512429;28;20067;-83
2021/07/23 11:17:47;;;;;;;4.95;3.53;;;;;;;;;;10494338;28;20381;-84
2021/07/23 11:22:53;;;;;;;4.47;3.42;;;;;;;;;;10494235;28;20028;-85
2021/07/23 11:27:54;;;;;;;4.05;3.42;;;;;;;;;;10513850;28;20033;-83
2021/07/23 11:33:11;;;;;;;4.10;2.90;;;;;;;;;;10495790;28;20024;-83
2021/07/23 11:38:17;;;;;;;4.97;3.30;;;;;;;;;;10495117;28;20029;-84
2021/07/23 11:43:21;;;;;;;4.40;3.20;;;;;;;;;;10495318;28;20119;-84
2021/07/23 11:48:26;;;;;;;4.32;3.22;;;;;;;;;;10506266;28;20032;-83
2021/07/23 11:53:32;;;;;;;7.68;3.90;;;;;;;;;;10497059;28;20119;-84
2021/07/23 11:58:38;;;;;;;3.92;3.60;;;;;;;;;;10509691;28;20502;-83
2021/07/23 12:03:43;;;;;;;4.18;2.90;;;;;;;;;;10513191;28;20028;-83
2021/07/23 12:08:52;;;;;;;4.97;2.97;;;;;;;;;;10530416;28;20017;-84
2021/07/23 12:13:54;;;;;;;4.20;3.10;;;;;;;;;;10506030;28;20031;-84
2021/07/23 12:18:59;;;;;;;4.70;3.67;;;;;;;;;;10495286;28;20079;-84
2021/07/23 12:24:01;;;;;;;3.40;2.90;;;;;;;;;;10493807;28;20070;-85
2021/07/23 12:29:14;;;;;;;5.78;3.08;;;;;;;;;;10493513;28;20017;-83
2021/07/23 12:34:21;;;;;;;4.53;3.85;;;;;;;;;;10522984;28;20029;-84
2021/07/23 12:39:51;;;;;;;5.00;3.33;;;;;;;;;;10495127;28;20505;-83
2021/07/23 12:44:54;;;;;;;;;;;;;;;;;;10518562;28;20024;-84
2021/07/23 12:50:13;;;;;;;4.57;2.92;;;;;;;;;;10508714;28;19904;-83
2021/07/23 12:55:21;;;;;;;4.95;3.08;;;;;;;;;;10507812;28;20034;-84
2021/07/23 13:00:28;;;;;;;5.22;3.80;;;;;;;;;;10487502;28;20037;-84
2021/07/23 13:05:37;;;;;;;3.90;3.30;;;;;;;;;;10490336;28;20036;-82
2021/07/23 13:11:08;;;;;;;4.97;2.97;;;;;;;;;;10485923;28;20021;-83
2021/07/23 13:16:10;;;;;;;6.97;3.63;;;;;;;;;;10485766;28;20025;-84
2021/07/23 13:21:13;;;;;;;3.63;2.90;;;;;;;;;;10485804;28;20032;-85
2021/07/23 13:26:40;;;;;;;4.55;3.00;;;;;;;;;;10491602;28;20112;-87
2021/07/23 13:31:43;;;;;;;4.00;2.83;;;;;;;;;;10493094;28;20048;-85
2021/07/23 13:37:19;;;;;;;3.60;3.05;;;;;;;;;;10495135;28;20020;-85
2021/07/23 13:42:42;;;;;;;4.78;3.03;;;;;;;;;;10493887;28;20100;-86
2021/07/23 13:47:43;;;;;;;5.82;2.95;;;;;;;;;;10493101;28;20021;-85
2021/07/23 13:52:49;;;;;;;5.70;3.20;;;;;;;;;;10491754;28;20020;-85
2021/07/23 13:58:12;;;;;;;4.07;3.05;;;;;;;;;;10491463;28;20024;-85
2021/07/23 14:03:34;;;;;;;8.70;3.20;;;;;;;;;;10507994;28;20486;-87
2021/07/23 14:08:36;;;;;;;3.85;3.08;;;;;;;;;;10488370;28;20016;-87
2021/07/23 14:13:43;;;;;;;4.65;2.85;;;;;;;;;;10493409;28;20036;-87
2021/07/23 14:19:38;;;;;;;4.35;3.38;;;;;;;;;;10505725;28;20028;-84
2021/07/23 14:24:42;;;;;;;4.35;2.60;;;;;;;;;;10491210;28;20021;-86
2021/07/23 14:29:47;;;;;;;4.85;3.03;;;;;;;;;;10530347;28;20048;-87
2021/07/23 14:41:09;;;;;;;5.65;2.60;;;;;;;;;;10306596;28;20063;-87
2021/07/23 14:46:35;;;;;;;4.10;2.70;;;;;;;;;;10185027;29;20036;-88
2021/07/23 14:51:59;;;;;;;4.18;3.42;;;;;;;;;;10395403;28;20037;-87
2021/07/23 14:57:04;;;;;;;4.30;3.22;;;;;;;;;;10393181;28;20133;-86
2021/07/23 15:02:13;;;;;;;4.85;3.33;;;;;;;;;;10412348;28;20173;-87
2021/07/23 15:07:17;;;;;;;4.50;3.10;;;;;;;;;;10414398;28;20399;-87
2021/07/23 15:12:28;;;;;;;7.43;4.50;;;;;;;;;;10514973;28;20051;-87
2021/07/23 15:17:29;;;;;;;4.75;2.95;;;;;;;;;;10495853;28;20052;-86
2021/07/23 15:22:30;;;;;;;4.45;3.25;;;;;;;;;;10493656;28;20028;-86
2021/07/23 15:27:31;;;;;;;5.50;3.50;;;;;;;;;;10495286;28;20059;-86
2021/07/23 15:32:32;;;;;;;4.18;3.08;;;;;;;;;;10494911;28;20036;-86
2021/07/23 15:37:34;;;;;;;3.25;2.90;;;;;;;;;;10505211;28;20402;-85
2021/07/23 15:42:35;;;;;;;4.90;3.20;;;;;;;;;;10545818;28;20058;-86
2021/07/23 15:47:39;;;;;;;3.92;3.30;;;;;;;;;;10515548;28;20078;-86
2021/07/23 15:52:40;;;;;;;7.40;3.67;;;;;;;;;;10492158;28;20546;-86
2021/07/23 15:57:41;;;;;;;4.97;3.10;;;;;;;;;;10492782;28;20028;-86
2021/07/23 16:02:42;;;;;;;4.45;2.90;;;;;;;;;;10492079;28;20033;-86
2021/07/23 16:07:43;;;;;;;3.75;3.00;;;;;;;;;;10491608;28;20024;-86
2021/07/23 16:12:44;;;;;;;4.43;2.85;;;;;;;;;;10518223;28;20025;-86
2021/07/23 16:17:45;;;;;;;3.95;2.90;;;;;;;;;;10496574;28;20048;-84
2021/07/23 16:22:46;;;;;;;3.60;2.70;;;;;;;;;;10496738;28;20036;-85
2021/07/23 16:27:47;;;;;;;3.90;3.05;;;;;;;;;;10497244;28;20032;-84
2021/07/23 16:32:49;;;;;;;4.85;3.15;;;;;;;;;;10516239;28;20035;-84
2021/07/23 16:37:50;;;;;;;3.85;3.08;;;;;;;;;;10496063;28;20024;-84
2021/07/23 16:42:51;;;;;;;4.82;2.83;;;;;;;;;;10495526;28;20024;-84
2021/07/23 16:47:54;;;;;;;3.53;2.58;;;;;;;;;;10497990;28;20024;-84
2021/07/23 16:52:54;;;;;;;3.30;2.80;;;;;;;;;;10513165;28;20028;-84
2021/07/23 16:57:57;;;;;;;5.93;3.20;;;;;;;;;;10493498;28;20063;-84
2021/07/23 17:02:58;;;;;;;4.28;3.15;;;;;;;;;;10494509;28;20024;-84
2021/07/23 17:07:59;;;;;;;4.75;3.20;;;;;;;;;;10510510;28;20116;-84
2021/07/23 17:13:00;;;;;;;3.45;3.15;;;;;;;;;;10510248;28;20020;-83
2021/07/23 17:18:01;;;;;;;4.15;3.20;;;;;;;;;;10492906;28;20055;-83
2021/07/23 17:23:02;;;;;;;7.43;3.17;;;;;;;;;;10493884;28;20025;-84
2021/07/23 17:28:03;;;;;;;3.22;2.65;;;;;;;;;;10511782;28;20036;-85
2021/07/23 17:33:06;;;;;;;6.53;3.22;;;;;;;;;;10510876;28;20056;-84
2021/07/23 17:38:07;;;;;;;9.48;3.60;;;;;;;;;;10493162;28;20112;-85
2021/07/23 17:43:09;;;;;;;5.72;2.97;;;;;;;;;;10493382;28;20056;-84
2021/07/23 17:48:10;;;;;;;3.10;2.80;;;;;;;;;;10489833;28;20069;-82
2021/07/23 17:53:12;;;;;;;4.05;2.80;;;;;;;;;;10490266;28;20431;-82
2021/07/23 17:58:14;;;;;;;5.80;2.47;;;;;;;;;;10488973;28;20032;-83
2021/07/23 18:03:15;;;;;;;6.63;2.58;;;;;;;;;;10491237;28;20508;-82
2021/07/23 18:08:16;;;;;;;4.38;2.78;;;;;;;;;;10488434;28;20037;-83
2021/07/23 18:13:17;;;;;;;3.33;2.47;;;;;;;;;;10487853;28;20490;-82
2021/07/23 18:18:18;;;;;;;3.00;2.53;;;;;;;;;;10488996;28;20032;-82
2021/07/23 18:23:19;;;;;;;3.63;2.80;;;;;;;;;;10506548;28;20035;-82
2021/07/23 18:28:20;;;;;;;5.22;2.83;;;;;;;;;;10488505;28;20020;-82
2021/07/23 18:33:21;;;;;;;3.70;2.60;;;;;;;;;;10488162;28;20029;-82
2021/07/23 18:38:22;;;;;;;3.67;2.38;;;;;;;;;;10487182;28;20033;-82
2021/07/23 18:43:23;;;;;;;3.22;2.60;;;;;;;;;;10505455;28;20036;-82
2021/07/23 18:48:24;;;;;;;3.85;2.70;;;;;;;;;;10505885;28;20045;-83
2021/07/23 18:53:25;;;;;;;3.22;2.50;;;;;;;;;;10506447;28;20033;-83
2021/07/23 18:58:26;;;;;;;4.10;2.40;;;;;;;;;;10489753;28;20028;-83
2021/07/23 19:03:27;;;;;;;2.95;2.47;;;;;;;;;;10493887;28;20047;-83
2021/07/23 19:08:28;;;;;;;2.72;2.30;;;;;;;;;;10494623;28;20033;-82
2021/07/23 19:13:29;;;;;;;4.57;2.88;;;;;;;;;;10512961;28;20056;-83
2021/07/23 19:18:30;;;;;;;5.07;3.35;;;;;;;;;;10514545;28;20095;-82
2021/07/23 19:23:31;;;;;;;4.30;3.03;;;;;;;;;;10494296;28;20048;-83
2021/07/23 19:28:32;;;;;;;4.57;2.70;;;;;;;;;;10494325;28;20031;-83
2021/07/23 19:33:34;;;;;;;4.63;2.88;;;;;;;;;;10493393;28;20021;-82
2021/07/23 19:38:35;;;;;;;4.93;2.88;;;;;;;;;;10493835;28;20028;-82
2021/07/23 19:43:38;;;;;;;3.53;2.70;;;;;;;;;;10492723;28;20100;-83
2021/07/23 19:48:42;;;;;;;4.55;2.70;;;;;;;;;;10492697;28;20016;-83
2021/07/23 19:53:43;;;;;;;3.53;2.95;;;;;;;;;;10493557;28;20032;-83
2021/07/23 19:58:45;;;;;;;3.72;3.00;;;;;;;;;;10510178;28;20028;-82
2021/07/23 20:03:46;;;;;;;3.92;3.03;;;;;;;;;;10492151;28;20506;-83
2021/07/23 20:08:47;;;;;;;4.13;2.90;;;;;;;;;;10492579;28;20036;-83
2021/07/23 20:13:48;;;;;;;4.47;3.20;;;;;;;;;;10508987;28;20035;-83
2021/07/23 20:18:48;;;;;;;2.78;2.45;;;;;;;;;;10491524;28;20025;-83
2021/07/23 20:23:49;;;;;;;4.68;3.05;;;;;;;;;;10491423;28;20394;-82
2021/07/23 20:28:50;;;;;;;3.67;3.17;;;;;;;;;;10491473;28;20027;-83
2021/07/23 20:33:52;;;;;;;3.55;3.05;;;;;;;;;;10491240;28;20096;-82
2021/07/23 20:38:54;;;;;;;3.70;2.70;;;;;;;;;;10508681;28;20039;-83
2021/07/23 20:43:54;;;;;;;5.10;4.60;;;;;;;;;;10512609;28;20016;-84
2021/07/23 20:48:55;;;;;;;5.32;4.20;;;;;;;;;;10512250;28;20020;-84
2021/07/23 20:53:56;;;;;;;3.88;3.33;;;;;;;;;;10513032;28;20040;-84
2021/07/23 21:04:43;;;;;;;6.55;4.45;;;;;;;;;;10529448;28;20064;-83
2021/07/23 21:09:44;;;;;;;4.70;3.40;;;;;;;;;;10479627;28;20100;-83
2021/07/23 21:14:45;;;;;;;5.53;3.78;;;;;;;;;;10494262;28;20081;-84
2021/07/23 21:19:46;;;;;;;6.15;4.97;;;;;;;;;;10521560;28;20033;-84
2021/07/23 21:24:49;;;;;;;5.43;3.72;;;;;;;;;;10537221;28;20036;-84
2021/07/23 21:29:49;;;;;;;5.93;4.65;;;;;;;;;;10499748;28;20023;-82
2021/07/23 21:34:50;;;;;;;6.82;4.57;;;;;;;;;;10489614;28;20493;-82
2021/07/23 21:39:51;;;;;;;7.13;4.70;;;;;;;;;;10507905;28;20104;-82
2021/07/23 21:44:52;;;;;;;7.55;4.60;;;;;;;;;;10490102;28;20025;-82
2021/07/23 21:49:53;;;;;;;8.07;5.38;;;;;;;;;;10508493;28;20028;-82
2021/07/23 21:54:54;;;;;;;6.10;4.32;;;;;;;;;;10489609;28;20024;-82
2021/07/23 21:59:55;;;;;;;5.93;4.22;;;;;;;;;;10490839;28;20478;-82
2021/07/23 22:04:56;;;;;;;4.80;3.58;;;;;;;;;;10507428;28;20029;-82
2021/07/23 22:09:57;;;;;;;8.55;4.03;;;;;;;;;;10489197;28;20121;-83
2021/07/23 22:14:59;;;;;;;4.38;3.90;;;;;;;;;;10506856;28;20052;-82
2021/07/23 22:20:01;;;;;;;5.65;4.72;;;;;;;;;;10489001;28;20040;-84
2021/07/23 22:25:03;;;;;;;7.28;5.35;;;;;;;;;;10488028;28;20029;-82
2021/07/23 22:30:04;;;;;;;5.50;4.40;;;;;;;;;;10507725;28;20043;-82
2021/07/23 22:35:05;;;;;;;5.65;4.65;;;;;;;;;;10494186;28;20034;-82
2021/07/23 22:40:06;;;;;;;5.15;4.63;;;;;;;;;;10514953;28;20032;-82
2021/07/23 22:45:08;;;;;;;5.18;4.35;;;;;;;;;;10514979;28;20021;-82
2021/07/23 22:50:09;;;;;;;7.57;5.72;;;;;;;;;;10498185;28;20021;-83
2021/07/23 22:55:10;;;;;;;6.00;4.45;;;;;;;;;;10504361;28;20027;-82
2021/07/23 23:00:12;;;;;;;5.10;4.43;;;;;;;;;;10496831;28;20044;-83
2021/07/23 23:05:13;;;;;;;4.40;3.70;;;;;;;;;;10513746;28;20082;-82
2021/07/23 23:10:14;;;;;;;7.03;6.13;;;;;;;;;;10494608;28;20016;-82
2021/07/23 23:15:15;;;;;;;5.10;3.75;;;;;;;;;;10512968;28;20020;-82
2021/07/23 23:20:16;;;;;;;5.97;5.07;;;;;;;;;;10512777;28;20163;-82
2021/07/23 23:25:17;;;;;;;5.15;4.43;;;;;;;;;;10494149;28;20025;-83
2021/07/23 23:30:21;;;;;;;7.30;5.80;;;;;;;;;;10493976;28;20474;-82
2021/07/23 23:35:27;;;;;;;4.68;3.80;;;;;;;;;;10512373;28;20017;-83
2021/07/23 23:40:29;;;;;;;4.82;3.70;;;;;;;;;;10492762;28;20493;-82
2021/07/23 23:45:29;;;;;;;6.03;4.60;;;;;;;;;;10492905;28;20025;-82
2021/07/23 23:50:34;;;;;;;5.72;5.07;;;;;;;;;;10511892;28;20028;-82
2021/07/23 23:55:35;;;;;;;6.53;4.93;;;;;;;;;;10493027;28;20031;-82
